Time;durP1;ratioP1;P1;durP2;ratioP2;P2;SDS_P1;SDS_P2;PMS_P1;PMS_P2;Temp;Humidity;BMP_temperature;BMP_pressure;BME280_temperature;BME280_humidity;BME280_pressure;Samples;Min_cycle;Max_cycle;Signal;HPM_P1;HPM_P2
2023/02/24 00:01:17;;;;;;;10.68;2.45;;;5.90;99.90;;;;;;5098413;28;20198;-74
2023/02/24 00:03:44;;;;;;;10.98;2.63;;;5.90;99.90;;;;;;5069921;28;20200;-74
2023/02/24 00:06:11;;;;;;;13.60;4.63;;;5.90;99.90;;;;;;5086383;28;20276;-73
2023/02/24 00:08:39;;;;;;;17.70;3.47;;;5.90;99.90;;;;;;5081799;28;20297;-74
2023/02/24 00:11:12;;;;;;;5.63;2.00;;;5.90;99.90;;;;;;5086948;28;20707;-75
2023/02/24 00:13:39;;;;;;;6.93;2.30;;;5.90;99.90;;;;;;5093066;28;20210;-75
2023/02/24 00:16:08;;;;;;;9.60;2.22;;;5.90;99.90;;;;;;5089202;28;20282;-75
2023/02/24 00:18:37;;;;;;;10.45;2.30;;;5.80;99.90;;;;;;5085250;28;20227;-74
2023/02/24 00:21:09;;;;;;;8.95;2.55;;;5.80;99.90;;;;;;5085593;28;20671;-74
2023/02/24 00:23:39;;;;;;;9.13;2.47;;;5.90;99.90;;;;;;5080785;28;20244;-75
2023/02/24 00:26:07;;;;;;;5.30;2.53;;;5.90;99.90;;;;;;5081823;28;20201;-75
2023/02/24 00:28:35;;;;;;;9.02;2.58;;;5.80;99.90;;;;;;5084955;28;20195;-75
2023/02/24 00:31:05;;;;;;;4.43;2.20;;;5.80;99.90;;;;;;5083366;28;20202;-74
2023/02/24 00:33:34;;;;;;;12.00;2.75;;;5.70;99.90;;;;;;5092968;28;20199;-73
2023/02/24 00:36:12;;;;;;;5.88;3.40;;;5.70;99.90;;;;;;5092019;28;20246;-74
2023/02/24 00:38:43;;;;;;;5.85;2.90;;;5.70;99.90;;;;;;5081048;28;20226;-74
2023/02/24 00:41:15;;;;;;;8.70;2.40;;;5.70;99.90;;;;;;5089183;28;20211;-74
2023/02/24 00:43:45;;;;;;;21.80;2.97;;;5.60;99.90;;;;;;5086006;28;20200;-74
2023/02/24 00:46:15;;;;;;;13.15;2.58;;;5.60;99.90;;;;;;5086818;28;20698;-73
2023/02/24 00:48:44;;;;;;;9.50;2.22;;;5.60;99.90;;;;;;5100067;28;20258;-74
2023/02/24 00:51:16;;;;;;;9.30;3.22;;;5.70;99.90;;;;;;5096399;28;20206;-74
2023/02/24 00:53:44;;;;;;;7.97;3.60;;;5.70;99.90;;;;;;5091674;28;20214;-74
2023/02/24 00:56:12;;;;;;;9.68;2.17;;;5.70;99.90;;;;;;5085283;28;20226;-74
2023/02/24 00:58:40;;;;;;;9.80;2.83;;;5.70;99.90;;;;;;5092076;28;20222;-74
2023/02/24 01:01:13;;;;;;;6.25;2.88;;;5.70;99.90;;;;;;5085466;28;20201;-73
2023/02/24 01:03:41;;;;;;;7.03;2.80;;;5.70;99.90;;;;;;5077509;28;20212;-74
2023/02/24 01:06:08;;;;;;;7.85;2.13;;;5.60;99.90;;;;;;5091473;28;20597;-75
2023/02/24 01:08:39;;;;;;;6.68;2.15;;;5.60;99.90;;;;;;5081950;28;20649;-73
2023/02/24 01:13:51;;;;;;;10.18;2.50;;;5.60;99.90;;;;;;5086396;28;20330;-75
2023/02/24 01:16:18;;;;;;;3.65;1.80;;;5.60;99.90;;;;;;5088850;28;20584;-74
2023/02/24 01:18:47;;;;;;;9.52;2.67;;;5.50;99.90;;;;;;5091830;28;20616;-73
2023/02/24 01:21:14;;;;;;;13.02;3.35;;;5.50;99.90;;;;;;5083445;28;20703;-73
2023/02/24 01:23:44;;;;;;;5.15;2.70;;;5.50;99.90;;;;;;5091937;28;20199;-75
2023/02/24 01:26:11;;;;;;;11.20;1.98;;;5.40;99.90;;;;;;5086581;28;20233;-74
2023/02/24 01:28:38;;;;;;;9.25;2.17;;;5.60;99.90;;;;;;5082175;28;20667;-74
2023/02/24 01:31:06;;;;;;;9.35;1.95;;;5.60;99.90;;;;;;5082837;28;20630;-74
2023/02/24 01:33:36;;;;;;;5.43;3.13;;;5.50;99.90;;;;;;5088888;28;20203;-73
2023/02/24 01:36:13;;;;;;;6.72;1.48;;;5.50;99.90;;;;;;5083073;28;20278;-74
2023/02/24 01:38:43;;;;;;;6.85;1.42;;;5.50;99.90;;;;;;5086513;28;20202;-75
2023/02/24 01:41:12;;;;;;;5.05;1.90;;;5.50;99.90;;;;;;5090027;28;20314;-74
2023/02/24 01:44:01;;;;;;;4.85;2.70;;;5.50;99.90;;;;;;5083321;28;20196;-74
2023/02/24 01:46:31;;;;;;;8.93;2.50;;;5.40;99.90;;;;;;5087400;28;20214;-75
2023/02/24 01:49:03;;;;;;;4.85;1.60;;;5.60;99.90;;;;;;5092770;28;20222;-74
2023/02/24 01:51:34;;;;;;;7.05;1.55;;;5.50;99.90;;;;;;5083777;28;20211;-73
2023/02/24 01:54:04;;;;;;;6.45;1.48;;;5.50;99.90;;;;;;5086168;28;20200;-74
2023/02/24 01:56:33;;;;;;;2.30;1.20;;;5.50;99.90;;;;;;5086451;28;20226;-75
2023/02/24 01:59:02;;;;;;;6.30;1.80;;;5.40;99.90;;;;;;5089763;28;20658;-74
2023/02/24 02:01:38;;;;;;;8.00;2.40;;;5.40;99.90;;;;;;5087826;28;20205;-74
2023/02/24 02:04:12;;;;;;;5.80;1.98;;;5.50;99.90;;;;;;5085362;28;20203;-74
2023/02/24 02:06:40;;;;;;;4.47;2.40;;;5.50;99.90;;;;;;5086733;28;20239;-74
2023/02/24 02:09:10;;;;;;;6.28;2.25;;;5.40;99.90;;;;;;5091328;28;20228;-74
2023/02/24 02:11:37;;;;;;;8.52;2.22;;;5.40;99.90;;;;;;5093287;28;20227;-74
2023/02/24 02:14:04;;;;;;;9.15;1.55;;;5.40;99.90;;;;;;5080350;28;20291;-74
2023/02/24 02:16:50;;;;;;;8.48;1.50;;;5.40;99.90;;;;;;5083439;28;20300;-75
2023/02/24 02:19:54;;;;;;;8.02;2.10;;;5.30;99.90;;;;;;5078122;28;20671;-74
2023/02/24 02:22:52;;;;;;;4.90;1.65;;;5.50;99.90;;;;;;5094263;28;20306;-74
2023/02/24 02:25:38;;;;;;;14.30;2.33;;;5.40;99.90;;;;;;5071976;28;20208;-75
2023/02/24 02:28:30;;;;;;;4.47;1.75;;;5.40;99.90;;;;;;5083459;28;20296;-73
2023/02/24 02:31:21;;;;;;;10.90;3.22;;;5.40;99.90;;;;;;5069011;28;20247;-74
2023/02/24 02:34:10;;;;;;;11.07;2.10;;;5.40;99.90;;;;;;5090440;28;20192;-75
2023/02/24 02:36:49;;;;;;;7.85;1.90;;;5.40;99.90;;;;;;5080751;28;20282;-73
2023/02/24 02:39:22;;;;;;;8.68;2.00;;;5.30;99.90;;;;;;5068877;28;20235;-74
2023/02/24 02:42:00;;;;;;;8.65;3.20;;;5.20;99.90;;;;;;5087123;28;20257;-73
2023/02/24 02:44:38;;;;;;;10.07;2.10;;;5.20;99.90;;;;;;5080213;28;20190;-74
2023/02/24 02:47:12;;;;;;;3.80;1.55;;;5.20;99.90;;;;;;5063868;28;20223;-73
2023/02/24 02:49:43;;;;;;;7.15;2.28;;;5.30;99.90;;;;;;5068965;28;20603;-73
2023/02/24 02:52:16;;;;;;;4.78;1.40;;;5.30;99.90;;;;;;5088154;28;20646;-74
2023/02/24 02:54:49;;;;;;;7.90;2.75;;;5.30;99.90;;;;;;5080135;28;20625;-73
2023/02/24 02:57:20;;;;;;;3.13;1.67;;;5.30;99.90;;;;;;5077431;28;20248;-74
2023/02/24 02:59:52;;;;;;;5.25;1.50;;;5.30;99.90;;;;;;5080418;28;21267;-74
2023/02/24 03:02:27;;;;;;;8.30;1.30;;;5.30;99.90;;;;;;5078047;28;20204;-74
2023/02/24 03:04:58;;;;;;;6.07;1.98;;;5.20;99.90;;;;;;5061795;28;20242;-75
2023/02/24 03:07:30;;;;;;;8.35;1.95;;;5.30;99.90;;;;;;5078311;28;20225;-74
2023/02/24 03:10:01;;;;;;;6.80;2.00;;;5.30;99.90;;;;;;5080046;28;20219;-74
2023/02/24 03:12:31;;;;;;;4.53;1.40;;;5.20;99.90;;;;;;5087856;28;20204;-73
2023/02/24 03:15:00;;;;;;;6.68;2.35;;;5.20;99.90;;;;;;5080225;28;20196;-73
2023/02/24 03:17:32;;;;;;;9.55;2.22;;;5.20;99.90;;;;;;5083234;28;20296;-74
2023/02/24 03:20:11;;;;;;;4.60;2.50;;;5.20;99.90;;;;;;5090392;28;20220;-75
2023/02/24 03:22:42;;;;;;;6.03;1.30;;;5.20;99.90;;;;;;5087301;28;20214;-73
2023/02/24 03:25:09;;;;;;;4.25;1.25;;;5.20;99.90;;;;;;5096881;28;20210;-74
2023/02/24 03:27:44;;;;;;;11.23;1.50;;;5.20;99.90;;;;;;5096184;28;20228;-74
2023/02/24 03:30:16;;;;;;;5.15;1.67;;;5.20;99.90;;;;;;5094981;28;20552;-73
2023/02/24 03:32:54;;;;;;;3.45;1.55;;;5.20;99.90;;;;;;5085986;28;20225;-74
2023/02/24 03:35:26;;;;;;;7.38;2.20;;;5.20;99.90;;;;;;5091290;28;20237;-74
2023/02/24 03:37:56;;;;;;;14.95;3.95;;;5.20;99.90;;;;;;5085027;28;20220;-74
2023/02/24 03:40:27;;;;;;;10.00;1.60;;;5.20;99.90;;;;;;5078605;28;20203;-75
2023/02/24 03:43:04;;;;;;;3.08;1.42;;;5.30;99.90;;;;;;5088962;28;20290;-74
2023/02/24 03:45:34;;;;;;;6.93;1.90;;;5.20;99.90;;;;;;5076081;28;20315;-73
2023/02/24 03:48:03;;;;;;;5.10;1.60;;;5.20;99.90;;;;;;5081479;28;20218;-72
2023/02/24 03:50:32;;;;;;;4.38;2.25;;;5.10;99.90;;;;;;5082315;28;20207;-74
2023/02/24 03:53:08;;;;;;;4.68;1.40;;;5.10;99.90;;;;;;5089702;28;20222;-74
2023/02/24 03:55:41;;;;;;;5.82;1.80;;;5.20;99.90;;;;;;5085557;28;20302;-73
2023/02/24 03:58:18;;;;;;;2.45;1.35;;;5.10;99.90;;;;;;5066513;28;20231;-74
2023/02/24 04:00:51;;;;;;;8.27;1.83;;;5.10;99.90;;;;;;5088592;28;20271;-73
2023/02/24 04:03:30;;;;;;;6.15;1.60;;;5.00;99.90;;;;;;5081208;28;20203;-74
2023/02/24 04:06:08;;;;;;;3.70;1.85;;;5.10;99.90;;;;;;5089774;28;20194;-73
2023/02/24 04:08:41;;;;;;;2.53;1.40;;;5.10;99.90;;;;;;5075824;28;20289;-72
2023/02/24 04:11:19;;;;;;;3.90;1.48;;;5.00;99.90;;;;;;5073653;28;20226;-74
2023/02/24 04:13:50;;;;;;;5.78;1.00;;;5.00;99.90;;;;;;5070778;28;20198;-74
2023/02/24 04:16:27;;;;;;;3.05;2.20;;;5.00;99.90;;;;;;5083778;28;20253;-73
2023/02/24 04:18:58;;;;;;;8.35;1.88;;;5.00;99.90;;;;;;5083139;28;20598;-75
2023/02/24 04:21:29;;;;;;;3.90;1.52;;;5.00;99.90;;;;;;5087771;28;20329;-74
2023/02/24 04:23:57;;;;;;;6.93;2.10;;;5.00;99.90;;;;;;5082556;28;20202;-74
2023/02/24 04:26:26;;;;;;;3.35;1.95;;;5.00;99.90;;;;;;5087883;28;20222;-74
2023/02/24 04:28:55;;;;;;;7.93;1.92;;;5.00;99.90;;;;;;5092935;28;20573;-74
2023/02/24 04:31:25;;;;;;;10.02;2.25;;;4.90;99.90;;;;;;5092376;28;20307;-73
2023/02/24 04:33:52;;;;;;;9.55;2.30;;;5.00;99.90;;;;;;5091382;28;20199;-74
2023/02/24 04:36:20;;;;;;;3.97;1.33;;;5.00;99.90;;;;;;5078513;28;20251;-74
2023/02/24 04:38:49;;;;;;;4.00;1.80;;;4.90;99.90;;;;;;5079384;28;20195;-74
2023/02/24 04:41:19;;;;;;;6.78;1.60;;;4.90;99.90;;;;;;5092414;28;20201;-73
2023/02/24 04:43:49;;;;;;;4.03;1.38;;;4.90;99.90;;;;;;5080941;28;20205;-73
2023/02/24 04:46:17;;;;;;;9.63;2.08;;;4.90;99.90;;;;;;5080498;28;20233;-73
2023/02/24 04:48:44;;;;;;;6.25;1.98;;;4.90;99.90;;;;;;5075503;28;20202;-73
2023/02/24 04:51:12;;;;;;;3.63;1.20;;;4.90;99.90;;;;;;5077586;28;20214;-72
2023/02/24 04:53:39;;;;;;;6.93;1.65;;;4.90;99.90;;;;;;5083084;28;20209;-73
2023/02/24 04:56:08;;;;;;;6.60;1.92;;;4.90;99.90;;;;;;5079305;28;20240;-73
2023/02/24 04:58:38;;;;;;;3.15;1.63;;;4.90;99.90;;;;;;5087439;28;20211;-74
2023/02/24 05:01:10;;;;;;;6.65;2.22;;;4.90;99.90;;;;;;5080848;28;20199;-74
2023/02/24 05:03:41;;;;;;;8.52;1.90;;;4.90;99.90;;;;;;5087631;28;20615;-73
2023/02/24 05:06:12;;;;;;;4.25;1.67;;;4.90;99.90;;;;;;5082950;28;20624;-72
2023/02/24 05:08:40;;;;;;;10.77;2.13;;;4.90;99.90;;;;;;5082783;28;20616;-73
2023/02/24 05:11:14;;;;;;;7.40;2.28;;;4.90;99.90;;;;;;5086691;28;20210;-73
2023/02/24 05:13:44;;;;;;;3.65;1.35;;;4.80;99.90;;;;;;5071336;28;20516;-72
2023/02/24 05:16:13;;;;;;;6.40;2.55;;;4.80;99.90;;;;;;5082232;28;20265;-73
2023/02/24 05:18:41;;;;;;;7.43;1.80;;;4.90;99.90;;;;;;5087513;28;20530;-72
2023/02/24 05:23:57;;;;;;;6.88;1.80;;;4.80;99.90;;;;;;5089480;28;20201;-75
2023/02/24 05:26:26;;;;;;;5.22;2.00;;;4.80;99.90;;;;;;5081706;28;20223;-74
2023/02/24 05:28:55;;;;;;;6.70;2.45;;;4.80;99.90;;;;;;5085648;28;20204;-73
2023/02/24 05:31:25;;;;;;;7.55;1.45;;;4.80;99.90;;;;;;5083159;28;20237;-73
2023/02/24 05:33:54;;;;;;;12.20;1.92;;;4.90;99.90;;;;;;5080711;28;20202;-73
2023/02/24 05:36:22;;;;;;;5.32;2.15;;;4.70;99.90;;;;;;5077212;28;20250;-73
2023/02/24 05:38:54;;;;;;;10.90;1.90;;;4.80;99.90;;;;;;5079368;28;20202;-73
2023/02/24 05:41:22;;;;;;;4.55;4.15;;;4.70;99.90;;;;;;5081509;28;20191;-73
2023/02/24 05:43:54;;;;;;;7.60;1.98;;;4.70;99.90;;;;;;5092011;28;20270;-73
2023/02/24 05:46:26;;;;;;;4.82;1.52;;;4.70;99.90;;;;;;5080856;28;20306;-72
2023/02/24 05:48:55;;;;;;;3.20;2.40;;;4.80;99.90;;;;;;5080513;28;20711;-72
2023/02/24 05:51:25;;;;;;;3.88;1.60;;;4.70;99.90;;;;;;5080852;28;20230;-73
2023/02/24 05:53:54;;;;;;;9.30;1.88;;;4.70;99.90;;;;;;5082680;28;20200;-73
2023/02/24 05:56:26;;;;;;;3.60;2.15;;;4.80;99.90;;;;;;5095445;28;20317;-73
2023/02/24 05:59:07;;;;;;;8.10;2.25;;;4.80;99.90;;;;;;5081295;28;20211;-74
2023/02/24 06:01:37;;;;;;;4.05;1.70;;;4.80;99.90;;;;;;5099260;28;20175;-73
2023/02/24 06:04:06;;;;;;;3.65;2.15;;;4.90;99.90;;;;;;5097955;28;20221;-73
2023/02/24 06:06:35;;;;;;;9.52;2.28;;;4.80;99.90;;;;;;5095029;28;20280;-73
2023/02/24 06:09:12;;;;;;;2.75;1.70;;;4.80;99.90;;;;;;5096786;28;20323;-73
2023/02/24 06:11:40;;;;;;;5.38;2.20;;;4.80;99.90;;;;;;5087267;28;20218;-74
2023/02/24 06:14:10;;;;;;;5.20;1.90;;;4.80;99.90;;;;;;5082341;28;20199;-73
2023/02/24 06:16:39;;;;;;;5.45;1.63;;;4.90;99.90;;;;;;5084957;28;20254;-74
2023/02/24 06:19:08;;;;;;;8.00;2.30;;;4.80;99.90;;;;;;5077331;28;20564;-73
2023/02/24 06:21:35;;;;;;;9.52;2.28;;;5.00;99.90;;;;;;5077391;28;20214;-73
2023/02/24 06:24:03;;;;;;;3.35;1.50;;;5.00;99.90;;;;;;5090653;28;20305;-74
2023/02/24 06:26:32;;;;;;;4.22;1.45;;;4.90;99.90;;;;;;5081804;28;20226;-73
2023/02/24 06:28:59;;;;;;;7.38;1.60;;;4.90;99.90;;;;;;5087736;28;20195;-72
2023/02/24 06:31:28;;;;;;;5.18;2.17;;;4.90;99.90;;;;;;5081386;28;20652;-74
2023/02/24 06:33:55;;;;;;;2.85;1.55;;;4.90;99.90;;;;;;5086355;28;20198;-74
2023/02/24 06:36:23;;;;;;;7.25;2.10;;;4.90;99.90;;;;;;5088871;28;20310;-73
2023/02/24 06:38:51;;;;;;;14.95;3.13;;;4.90;99.90;;;;;;5085023;28;20657;-76
2023/02/24 06:41:18;;;;;;;7.07;2.10;;;4.90;99.90;;;;;;5087809;28;20199;-73
2023/02/24 06:43:47;;;;;;;4.65;1.90;;;4.80;99.90;;;;;;5082088;28;20297;-75
2023/02/24 06:46:15;;;;;;;6.45;1.80;;;4.80;99.90;;;;;;5078513;28;20226;-73
2023/02/24 06:48:46;;;;;;;6.55;2.17;;;4.50;99.90;;;;;;5083327;28;20249;-73
2023/02/24 06:51:15;;;;;;;10.43;1.73;;;4.60;99.90;;;;;;5085510;28;20231;-75
2023/02/24 06:53:44;;;;;;;11.52;3.70;;;4.50;99.90;;;;;;5085326;28;20202;-74
2023/02/24 06:56:14;;;;;;;8.68;2.45;;;4.40;99.90;;;;;;5083114;28;20309;-75
2023/02/24 06:58:43;;;;;;;2.28;1.60;;;4.40;99.90;;;;;;5082732;28;20207;-75
2023/02/24 07:01:13;;;;;;;9.63;2.97;;;4.30;99.90;;;;;;5088544;28;20256;-75
2023/02/24 07:04:01;;;;;;;8.40;3.67;;;4.30;99.90;;;;;;5085971;28;20305;-74
2023/02/24 07:06:29;;;;;;;4.45;1.98;;;4.30;99.90;;;;;;5090106;28;20218;-75
2023/02/24 07:08:58;;;;;;;5.13;2.40;;;4.30;99.90;;;;;;5082478;28;20214;-74
2023/02/24 07:11:28;;;;;;;5.50;2.38;;;4.30;99.90;;;;;;5089318;28;20401;-77
2023/02/24 07:13:56;;;;;;;5.45;2.25;;;4.20;99.90;;;;;;5079801;28;20195;-75
2023/02/24 07:16:27;;;;;;;4.57;2.20;;;4.30;99.90;;;;;;5086530;28;20283;-73
2023/02/24 07:18:55;;;;;;;18.55;3.72;;;4.30;99.90;;;;;;5086275;28;20278;-74
2023/02/24 07:21:23;;;;;;;9.23;3.15;;;4.30;99.90;;;;;;5086728;28;20314;-74
2023/02/24 07:23:55;;;;;;;12.55;3.70;;;4.30;99.90;;;;;;5092966;28;20203;-73
2023/02/24 07:26:24;;;;;;;5.63;2.05;;;4.40;99.90;;;;;;5080544;28;20313;-75
2023/02/24 07:28:53;;;;;;;9.13;3.00;;;4.30;99.90;;;;;;5081275;28;20190;-75
2023/02/24 07:31:24;;;;;;;4.43;2.97;;;4.40;99.90;;;;;;5085389;28;20275;-75
2023/02/24 07:33:55;;;;;;;9.15;2.47;;;4.40;99.90;;;;;;5088681;28;20203;-75
2023/02/24 07:36:23;;;;;;;5.35;2.92;;;4.30;99.90;;;;;;5077237;28;20591;-75
2023/02/24 07:38:53;;;;;;;6.68;2.00;;;4.40;99.90;;;;;;5082948;28;20213;-75
2023/02/24 07:41:22;;;;;;;5.15;2.50;;;4.30;99.90;;;;;;5081385;28;20197;-74
2023/02/24 07:43:51;;;;;;;3.08;2.40;;;4.30;99.90;;;;;;5085146;28;20197;-74
2023/02/24 07:46:22;;;;;;;6.18;2.88;;;4.40;99.90;;;;;;5088803;28;20222;-74
2023/02/24 07:48:53;;;;;;;6.03;3.30;;;4.30;99.90;;;;;;5081248;28;20683;-74
2023/02/24 07:51:23;;;;;;;10.60;2.50;;;4.30;99.90;;;;;;5081412;28;20214;-74
2023/02/24 07:53:52;;;;;;;11.02;3.50;;;4.30;99.90;;;;;;5080616;28;20287;-77
2023/02/24 07:56:25;;;;;;;7.45;2.92;;;4.40;99.90;;;;;;5080213;28;20222;-75
2023/02/24 07:58:58;;;;;;;6.60;3.47;;;4.30;99.90;;;;;;5078580;28;20228;-75
2023/02/24 08:01:27;;;;;;;11.88;3.75;;;4.30;99.90;;;;;;5082992;28;20190;-74
2023/02/24 08:03:56;;;;;;;5.25;3.47;;;4.30;99.90;;;;;;5082522;28;20206;-73
2023/02/24 08:06:26;;;;;;;12.13;4.00;;;4.20;99.90;;;;;;5081352;28;20218;-74
2023/02/24 08:09:09;;;;;;;15.35;6.47;;;4.20;99.90;;;;;;5088442;28;20577;-74
2023/02/24 08:11:41;;;;;;;3.22;2.67;;;4.20;99.90;;;;;;5065219;28;20290;-74
2023/02/24 08:14:12;;;;;;;9.05;3.88;;;4.10;99.90;;;;;;5082952;28;20199;-74
2023/02/24 08:16:39;;;;;;;8.05;2.50;;;4.20;99.90;;;;;;5078171;28;20246;-75
2023/02/24 08:19:09;;;;;;;8.60;3.10;;;4.20;99.90;;;;;;5081890;28;20206;-74
2023/02/24 08:21:40;;;;;;;6.68;3.50;;;4.20;99.90;;;;;;5079796;28;20225;-75
2023/02/24 08:24:20;;;;;;;7.32;4.25;;;4.10;99.90;;;;;;5078047;28;20211;-75
2023/02/24 08:27:02;;;;;;;18.75;4.65;;;4.00;99.90;;;;;;5086265;28;20218;-75
2023/02/24 08:29:30;;;;;;;19.38;4.93;;;4.10;99.90;;;;;;5076964;28;20199;-75
2023/02/24 08:32:01;;;;;;;10.73;3.95;;;4.00;99.90;;;;;;5083438;28;20207;-74
2023/02/24 08:34:30;;;;;;;8.30;3.65;;;4.00;99.90;;;;;;5089029;28;20202;-75
2023/02/24 08:36:57;;;;;;;8.73;3.72;;;4.00;99.90;;;;;;5091907;28;20223;-73
2023/02/24 08:39:29;;;;;;;9.70;4.18;;;4.00;99.90;;;;;;5095071;28;20199;-75
2023/02/24 08:41:59;;;;;;;5.20;3.38;;;4.00;99.90;;;;;;5097597;28;20205;-74
2023/02/24 08:44:26;;;;;;;8.80;4.35;;;4.00;99.90;;;;;;5089893;28;20598;-73
2023/02/24 08:46:54;;;;;;;7.20;4.43;;;4.00;99.90;;;;;;5089485;28;20229;-74
2023/02/24 08:49:23;;;;;;;6.10;3.60;;;4.00;99.90;;;;;;5090459;28;20306;-75
2023/02/24 08:51:52;;;;;;;8.52;3.90;;;4.00;99.90;;;;;;5087765;28;20218;-75
2023/02/24 08:54:25;;;;;;;7.60;5.00;;;4.00;99.90;;;;;;5090518;28;20197;-75
2023/02/24 08:56:55;;;;;;;9.20;5.22;;;4.00;99.90;;;;;;5064208;28;20214;-76
2023/02/24 08:59:37;;;;;;;8.07;4.97;;;4.00;99.90;;;;;;5062231;28;20566;-72
2023/02/24 09:02:18;;;;;;;6.70;4.10;;;3.90;99.90;;;;;;5085541;28;20289;-73
2023/02/24 09:04:46;;;;;;;6.28;4.97;;;4.00;99.90;;;;;;5082179;28;20641;-72
2023/02/24 09:07:16;;;;;;;6.32;5.35;;;4.00;99.90;;;;;;5078440;28;20276;-74
2023/02/24 09:09:44;;;;;;;9.05;4.40;;;3.90;99.90;;;;;;5081078;28;20226;-73
2023/02/24 09:12:20;;;;;;;6.47;5.13;;;4.00;99.90;;;;;;5088866;28;20290;-74
2023/02/24 09:14:48;;;;;;;14.02;8.20;;;4.00;99.90;;;;;;5091247;28;20669;-74
2023/02/24 09:17:48;;;;;;;7.55;4.40;;;3.90;99.90;;;;;;5090560;28;20229;-74
2023/02/24 09:23:04;;;;;;;12.13;7.13;;;4.00;99.90;;;;;;5084513;28;20566;-73
2023/02/24 09:25:43;;;;;;;7.30;6.10;;;4.00;99.90;;;;;;5083104;28;20244;-73
2023/02/24 09:28:15;;;;;;;11.80;5.53;;;4.00;99.90;;;;;;5083295;28;20228;-74
2023/02/24 09:30:52;;;;;;;11.57;6.05;;;4.00;99.90;;;;;;5083062;28;20198;-74
2023/02/24 09:33:21;;;;;;;9.70;5.90;;;4.10;99.90;;;;;;5074508;28;20199;-72
2023/02/24 09:36:12;;;;;;;6.43;5.78;;;4.10;99.90;;;;;;5090832;28;20194;-74
2023/02/24 09:41:52;;;;;;;11.38;6.07;;;4.20;99.90;;;;;;5078253;28;20198;-74
2023/02/24 09:44:26;;;;;;;7.53;6.70;;;4.20;99.90;;;;;;5087160;28;20202;-72
2023/02/24 09:46:59;;;;;;;9.07;6.45;;;4.30;99.90;;;;;;5091249;28;20253;-74
2023/02/24 09:49:38;;;;;;;7.85;7.15;;;4.20;99.90;;;;;;5091615;28;20233;-73
2023/02/24 09:52:15;;;;;;;11.63;6.35;;;4.30;99.90;;;;;;5067724;28;20213;-72
2023/02/24 09:55:11;;;;;;;10.40;7.25;;;4.40;99.90;;;;;;5070717;28;20674;-74
2023/02/24 09:57:36;;;;;;;8.65;6.30;;;4.50;99.90;;;;;;5094378;28;20234;-73
2023/02/24 10:03:18;;;;;;;9.85;6.25;;;4.40;99.90;;;;;;5096497;28;20311;-73
2023/02/24 10:06:10;;;;;;;7.30;6.20;;;4.40;99.90;;;;;;5074161;28;20188;-73
2023/02/24 10:08:42;;;;;;;10.02;6.22;;;4.50;99.90;;;;;;5078370;28;20209;-72
2023/02/24 10:11:12;;;;;;;9.00;6.22;;;4.40;99.90;;;;;;5086374;28;20233;-72
2023/02/24 10:13:49;;;;;;;10.23;7.22;;;4.30;99.90;;;;;;5093329;28;20202;-74
2023/02/24 10:16:22;;;;;;;10.07;6.22;;;4.40;99.90;;;;;;5092810;28;20265;-74
2023/02/24 10:18:59;;;;;;;12.40;7.85;;;4.50;99.90;;;;;;5071939;28;20624;-73
2023/02/24 10:21:47;;;;;;;15.55;7.18;;;4.50;99.90;;;;;;5074545;28;20207;-74
2023/02/24 10:24:28;;;;;;;8.75;7.32;;;4.40;99.90;;;;;;5088687;28;20551;-76
2023/02/24 10:27:01;;;;;;;13.35;7.85;;;4.50;99.90;;;;;;5074429;28;20222;-73
2023/02/24 10:29:49;;;;;;;9.25;6.05;;;4.50;99.90;;;;;;5087395;28;20267;-74
2023/02/24 10:32:32;;;;;;;7.43;5.90;;;4.50;99.90;;;;;;5092170;28;20676;-74
2023/02/24 10:35:00;;;;;;;8.93;6.82;;;4.60;99.90;;;;;;5067045;28;20277;-73
2023/02/24 10:37:29;;;;;;;9.13;5.97;;;4.50;99.90;;;;;;5090402;28;20245;-74
2023/02/24 10:39:58;;;;;;;8.65;6.30;;;4.50;99.90;;;;;;5087576;28;20202;-73
2023/02/24 10:42:30;;;;;;;9.85;6.70;;;4.60;99.90;;;;;;5084260;28;20198;-74
2023/02/24 10:45:10;;;;;;;8.60;7.00;;;4.60;99.90;;;;;;5086194;28;20624;-73
2023/02/24 10:47:43;;;;;;;10.00;7.15;;;4.60;99.90;;;;;;5067883;28;20683;-74
2023/02/24 10:50:22;;;;;;;8.15;6.97;;;4.60;99.90;;;;;;5077219;28;20210;-74
2023/02/24 10:53:09;;;;;;;7.93;7.03;;;4.70;99.90;;;;;;5082525;28;20328;-74
2023/02/24 10:56:13;;;;;;;8.82;7.70;;;4.70;99.90;;;;;;5093519;28;20202;-72
2023/02/24 10:58:48;;;;;;;7.90;7.07;;;4.70;99.90;;;;;;5081443;28;20230;-73
2023/02/24 11:01:19;;;;;;;8.57;7.75;;;4.70;99.90;;;;;;5088724;28;20207;-72
2023/02/24 11:06:51;;;;;;;9.10;7.55;;;4.60;99.90;;;;;;5091254;28;20249;-73
2023/02/24 11:09:34;;;;;;;12.18;8.32;;;4.70;99.90;;;;;;5071245;28;20565;-74
2023/02/24 11:17:49;;;;;;;10.75;8.63;;;4.70;99.90;;;;;;5085853;28;20225;-73
2023/02/24 11:20:32;;;;;;;9.40;8.02;;;4.70;99.90;;;;;;5088518;28;20209;-74
2023/02/24 11:23:03;;;;;;;9.55;8.55;;;4.80;99.90;;;;;;5081194;28;20198;-75
2023/02/24 11:25:36;;;;;;;11.30;9.18;;;4.80;99.90;;;;;;5079295;28;20204;-73
2023/02/24 11:28:04;;;;;;;9.25;8.35;;;4.80;99.90;;;;;;5087224;28;20257;-73
2023/02/24 11:30:42;;;;;;;11.35;9.40;;;4.80;99.90;;;;;;5088459;28;20240;-75
2023/02/24 11:33:26;;;;;;;15.82;9.27;;;4.80;99.90;;;;;;5095712;28;20210;-73
2023/02/24 11:36:04;;;;;;;11.75;9.85;;;4.90;99.90;;;;;;5091307;28;20256;-74
2023/02/24 11:38:40;;;;;;;14.45;11.23;;;4.90;99.90;;;;;;5067704;28;20211;-74
2023/02/24 11:41:17;;;;;;;9.65;8.48;;;5.00;99.90;;;;;;5071248;28;20217;-75
2023/02/24 11:43:53;;;;;;;10.70;9.13;;;5.10;99.90;;;;;;5087376;28;20640;-75
2023/02/24 11:46:26;;;;;;;13.07;7.90;;;5.10;99.90;;;;;;5090744;28;20279;-73
2023/02/24 11:48:58;;;;;;;11.98;10.07;;;5.20;99.90;;;;;;5056792;28;20194;-75
2023/02/24 11:51:32;;;;;;;11.48;8.55;;;5.20;99.90;;;;;;5081780;28;20205;-74
2023/02/24 11:54:03;;;;;;;13.90;9.07;;;5.20;99.90;;;;;;5093442;28;20225;-74
2023/02/24 11:56:34;;;;;;;13.80;9.90;;;5.20;99.90;;;;;;5088851;28;20261;-73
2023/02/24 11:59:05;;;;;;;14.90;10.88;;;5.20;99.90;;;;;;5094044;28;20289;-73
2023/02/24 12:01:39;;;;;;;15.45;11.70;;;5.20;99.90;;;;;;5084072;28;20206;-73
2023/02/24 12:04:17;;;;;;;10.35;9.20;;;5.30;99.90;;;;;;5077248;28;20284;-73
2023/02/24 12:06:52;;;;;;;12.48;9.77;;;5.30;99.90;;;;;;5089721;28;20226;-74
2023/02/24 12:09:24;;;;;;;12.85;10.82;;;5.30;99.90;;;;;;5069490;28;20339;-74
2023/02/24 12:11:56;;;;;;;16.30;10.93;;;5.40;99.90;;;;;;5085856;28;20291;-75
2023/02/24 12:14:33;;;;;;;15.25;9.90;;;5.40;99.90;;;;;;5086812;28;20238;-75
2023/02/24 12:17:10;;;;;;;12.00;9.95;;;5.40;99.90;;;;;;5088795;28;20289;-74
2023/02/24 12:19:51;;;;;;;12.00;9.48;;;5.60;99.90;;;;;;5068552;28;20570;-71
2023/02/24 12:22:22;;;;;;;15.70;10.23;;;5.60;99.90;;;;;;5087000;28;20237;-73
2023/02/24 12:24:51;;;;;;;13.48;10.00;;;5.70;99.90;;;;;;5092828;28;20200;-74
2023/02/24 12:27:33;;;;;;;12.73;11.43;;;5.80;99.90;;;;;;5092707;28;20589;-73
2023/02/24 12:30:21;;;;;;;14.45;10.40;;;5.80;99.90;;;;;;5080769;28;20214;-73
2023/02/24 12:33:03;;;;;;;18.65;12.80;;;5.80;99.90;;;;;;5077500;28;20248;-75
2023/02/24 12:35:38;;;;;;;13.45;10.13;;;6.00;99.90;;;;;;5086678;28;20233;-75
2023/02/24 12:38:19;;;;;;;11.82;9.98;;;6.10;99.90;;;;;;5082844;28;20232;-72
2023/02/24 12:40:56;;;;;;;17.20;10.80;;;6.20;99.90;;;;;;5080483;28;20286;-74
2023/02/24 12:43:29;;;;;;;14.77;11.02;;;6.30;99.90;;;;;;5083945;28;20306;-72
2023/02/24 12:46:04;;;;;;;22.50;12.65;;;6.30;99.90;;;;;;5071346;28;20217;-76
2023/02/24 12:48:50;;;;;;;18.38;11.15;;;6.40;99.90;;;;;;5058262;28;20205;-74
2023/02/24 12:51:25;;;;;;;14.40;10.13;;;6.40;99.90;;;;;;5083934;28;20273;-73
2023/02/24 12:54:06;;;;;;;14.25;10.50;;;6.60;99.90;;;;;;5074566;28;20206;-73
2023/02/24 12:56:45;;;;;;;13.38;9.85;;;6.50;99.90;;;;;;5088321;28;20226;-72
2023/02/24 12:59:18;;;;;;;16.58;10.90;;;6.60;99.90;;;;;;5061766;28;20244;-75
2023/02/24 13:01:51;;;;;;;17.77;12.00;;;6.60;99.90;;;;;;5078427;28;20297;-76
2023/02/24 13:04:36;;;;;;;15.60;10.52;;;6.80;99.90;;;;;;5079336;28;20234;-73
2023/02/24 13:07:30;;;;;;;14.20;10.63;;;6.90;99.90;;;;;;5080151;28;20225;-74
2023/02/24 13:10:10;;;;;;;19.70;11.48;;;6.90;99.90;;;;;;5087075;28;20204;-74
2023/02/24 13:12:41;;;;;;;22.67;13.18;;;6.90;99.90;;;;;;5086733;28;20221;-73
2023/02/24 13:15:20;;;;;;;21.10;12.85;;;6.80;99.90;;;;;;5086859;28;20211;-73
2023/02/24 13:17:49;;;;;;;17.33;11.65;;;6.80;99.90;;;;;;5088823;28;20301;-73
2023/02/24 13:20:27;;;;;;;18.10;12.32;;;6.90;99.90;;;;;;5088093;28;20198;-73
2023/02/24 13:22:55;;;;;;;32.00;18.20;;;6.80;99.90;;;;;;5082687;28;20559;-73
2023/02/24 13:25:28;;;;;;;23.25;13.75;;;6.80;99.90;;;;;;5081103;28;20199;-73
2023/02/24 13:27:59;;;;;;;15.55;12.25;;;6.90;99.90;;;;;;5079888;28;20222;-73
2023/02/24 13:30:39;;;;;;;14.70;11.73;;;7.00;99.90;;;;;;5084483;28;20640;-73
2023/02/24 13:33:23;;;;;;;13.73;12.32;;;7.10;99.90;;;;;;5082714;28;20259;-74
2023/02/24 13:36:04;;;;;;;15.68;12.15;;;7.20;99.90;;;;;;5077936;28;20197;-71
2023/02/24 13:38:40;;;;;;;15.18;12.50;;;7.40;99.90;;;;;;5094402;28;20656;-73
2023/02/24 13:41:25;;;;;;;19.40;13.40;;;7.40;99.90;;;;;;5091626;28;20713;-75
2023/02/24 13:43:58;;;;;;;19.45;12.00;;;7.40;99.90;;;;;;5069704;28;20200;-72
2023/02/24 13:46:27;;;;;;;15.88;12.27;;;7.40;99.90;;;;;;5089522;28;20308;-74